createdAt,value
2023-03-13T00:02:14.004Z,100.00
2023-03-13T00:04:42.400Z,100.00
2023-03-13T00:07:11.333Z,100.00
2023-03-13T00:09:39.844Z,100.00
2023-03-13T00:12:08.913Z,100.00
2023-03-13T00:14:37.288Z,100.00
2023-03-13T00:17:05.679Z,100.00
2023-03-13T00:19:35.415Z,100.00
2023-03-13T00:22:03.704Z,100.00
2023-03-13T00:24:32.014Z,100.00
2023-03-13T00:27:03.274Z,100.00
2023-03-13T00:29:31.855Z,100.00
2023-03-13T00:32:00.174Z,100.00
2023-03-13T00:34:28.782Z,100.00
2023-03-13T00:36:58.487Z,100.00
2023-03-13T00:39:26.911Z,100.00
2023-03-13T00:41:55.156Z,100.00
2023-03-13T00:44:23.417Z,100.00
2023-03-13T00:46:51.655Z,100.00
2023-03-13T00:49:19.954Z,100.00
2023-03-13T00:51:48.279Z,100.00
2023-03-13T00:54:18.149Z,100.00
2023-03-13T00:56:46.574Z,100.00
2023-03-13T00:59:15.991Z,100.00
2023-03-13T01:01:44.366Z,100.00
2023-03-13T01:04:13.980Z,100.00
2023-03-13T01:06:43.730Z,100.00
2023-03-13T01:09:15.334Z,100.00
2023-03-13T01:11:46.724Z,100.00
2023-03-13T01:14:17.989Z,100.00
2023-03-13T01:16:46.621Z,100.00
2023-03-13T01:19:17.128Z,100.00
2023-03-13T01:21:47.762Z,100.00
2023-03-13T01:24:16.939Z,100.00
2023-03-13T01:26:46.625Z,100.00
2023-03-13T01:29:17.086Z,100.00
2023-03-13T01:31:45.372Z,100.00
2023-03-13T01:34:13.857Z,100.00
2023-03-13T01:36:42.205Z,100.00
2023-03-13T01:39:10.501Z,100.00
2023-03-13T01:41:39.505Z,100.00
2023-03-13T01:44:23.753Z,100.00
2023-03-13T01:46:53.160Z,100.00
2023-03-13T01:49:33.370Z,100.00
2023-03-13T01:52:14.686Z,100.00
2023-03-13T01:54:54.531Z,100.00
2023-03-13T01:57:27.091Z,100.00
2023-03-13T02:00:00.670Z,100.00
2023-03-13T02:02:30.835Z,100.00
2023-03-13T02:05:02.941Z,100.00
2023-03-13T02:07:36.314Z,100.00
2023-03-13T02:10:06.150Z,100.00
2023-03-13T02:12:37.324Z,100.00
2023-03-13T02:15:11.684Z,100.00
2023-03-13T02:17:41.311Z,100.00
2023-03-13T02:20:13.011Z,100.00
2023-03-13T02:22:48.745Z,100.00
2023-03-13T02:25:33.771Z,100.00
2023-03-13T02:28:06.599Z,100.00
2023-03-13T02:30:38.902Z,100.00
2023-03-13T02:33:07.538Z,100.00
2023-03-13T02:35:38.055Z,100.00
2023-03-13T02:38:14.250Z,100.00
2023-03-13T02:40:46.626Z,100.00
2023-03-13T02:43:19.654Z,100.00
2023-03-13T02:46:06.363Z,100.00
2023-03-13T02:48:40.205Z,100.00
2023-03-13T02:51:17.649Z,100.00
2023-03-13T02:53:48.150Z,100.00
2023-03-13T02:56:21.481Z,100.00
2023-03-13T02:58:50.810Z,100.00
2023-03-13T03:01:23.107Z,100.00
2023-03-13T03:03:51.969Z,100.00
2023-03-13T03:06:20.598Z,100.00
2023-03-13T03:08:49.505Z,100.00
2023-03-13T03:11:19.373Z,100.00
2023-03-13T03:13:52.516Z,100.00
2023-03-13T03:16:21.079Z,100.00
2023-03-13T03:18:49.786Z,100.00
2023-03-13T03:21:18.243Z,100.00
2023-03-13T03:23:46.686Z,100.00
2023-03-13T03:26:14.996Z,100.00
2023-03-13T03:28:44.774Z,100.00
2023-03-13T03:31:16.860Z,100.00
2023-03-13T03:33:46.570Z,100.00
2023-03-13T03:36:20.710Z,100.00
2023-03-13T03:38:50.469Z,100.00
2023-03-13T03:41:22.229Z,100.00
2023-03-13T03:43:52.039Z,100.00
2023-03-13T03:46:24.722Z,100.00
2023-03-13T03:48:53.304Z,100.00
2023-03-13T03:51:22.731Z,100.00
2023-03-13T03:53:51.252Z,100.00
2023-03-13T03:56:19.590Z,100.00
2023-03-13T03:58:54.308Z,100.00
2023-03-13T04:01:28.516Z,100.00
2023-03-13T04:03:56.853Z,100.00
2023-03-13T04:06:25.211Z,100.00
2023-03-13T04:08:53.638Z,100.00
2023-03-13T04:11:24.698Z,100.00
2023-03-13T04:13:57.321Z,100.00
2023-03-13T04:16:26.423Z,100.00
2023-03-13T04:18:56.377Z,100.00
2023-03-13T04:21:27.274Z,100.00
2023-03-13T04:24:15.877Z,100.00
2023-03-13T04:26:45.971Z,100.00
2023-03-13T04:29:17.004Z,100.00
2023-03-13T04:31:53.578Z,100.00
2023-03-13T04:34:31.058Z,100.00
2023-03-13T04:37:20.222Z,100.00
2023-03-13T04:40:12.656Z,100.00
2023-03-13T04:42:41.354Z,100.00
2023-03-13T04:45:29.378Z,100.00
2023-03-13T04:48:16.407Z,100.00
2023-03-13T04:50:52.969Z,100.00
2023-03-13T04:53:29.555Z,100.00
2023-03-13T04:56:41.496Z,100.00
2023-03-13T04:59:25.381Z,100.00
2023-03-13T05:02:00.811Z,100.00
2023-03-13T05:04:52.454Z,100.00
2023-03-13T05:07:28.576Z,100.00
2023-03-13T05:10:07.032Z,100.00
2023-03-13T05:12:45.929Z,100.00
2023-03-13T05:15:27.389Z,100.00
2023-03-13T05:18:17.027Z,100.00
2023-03-13T05:20:59.832Z,100.00
2023-03-13T05:23:36.853Z,100.00
2023-03-13T05:26:18.454Z,100.00
2023-03-13T05:29:12.643Z,100.00
2023-03-13T05:31:57.120Z,100.00
2023-03-13T05:34:46.811Z,100.00
2023-03-13T05:37:33.794Z,100.00
2023-03-13T05:40:20.821Z,100.00
2023-03-13T05:43:09.271Z,100.00
2023-03-13T05:46:03.468Z,100.00
2023-03-13T05:49:01.000Z,100.00
2023-03-13T05:51:30.709Z,100.00
2023-03-13T05:54:25.245Z,100.00
2023-03-13T05:57:05.608Z,100.00
2023-03-13T05:59:40.345Z,100.00
2023-03-13T06:02:34.936Z,100.00
2023-03-13T06:05:06.144Z,100.00
2023-03-13T06:07:35.872Z,100.00
2023-03-13T06:10:06.088Z,100.00
2023-03-13T06:12:36.059Z,100.00
2023-03-13T06:15:07.234Z,100.00
2023-03-13T06:17:59.043Z,100.00
2023-03-13T06:20:27.473Z,100.00
2023-03-13T06:22:57.106Z,100.00
2023-03-13T06:25:25.521Z,100.00
2023-03-13T06:27:53.776Z,100.00
2023-03-13T06:30:22.222Z,100.00
2023-03-13T06:32:51.149Z,100.00
2023-03-13T06:35:19.460Z,100.00
2023-03-13T06:37:47.793Z,100.00
2023-03-13T06:40:17.696Z,100.00
2023-03-13T06:42:46.084Z,100.00
2023-03-13T06:45:14.382Z,100.00
2023-03-13T06:47:42.635Z,100.00
2023-03-13T06:50:12.464Z,100.00
2023-03-13T06:52:44.243Z,100.00
2023-03-13T06:55:13.713Z,100.00
2023-03-13T06:57:43.385Z,100.00
2023-03-13T07:00:13.338Z,100.00
2023-03-13T07:02:41.603Z,100.00
2023-03-13T07:05:10.824Z,100.00
2023-03-13T07:07:39.166Z,100.00
2023-03-13T07:10:10.521Z,100.00
2023-03-13T07:12:39.449Z,100.00
2023-03-13T07:15:10.311Z,100.00
2023-03-13T07:17:38.924Z,100.00
2023-03-13T07:20:10.594Z,100.00
2023-03-13T07:22:39.100Z,100.00
2023-03-13T07:25:09.552Z,100.00
2023-03-13T07:27:38.543Z,100.00
2023-03-13T07:30:10.088Z,100.00
2023-03-13T07:32:38.463Z,100.00
2023-03-13T07:35:07.846Z,100.00
2023-03-13T07:37:36.154Z,100.00
2023-03-13T07:40:05.705Z,100.00
2023-03-13T07:42:34.029Z,100.00
2023-03-13T07:45:02.413Z,100.00
2023-03-13T07:47:32.137Z,100.00
2023-03-13T07:50:00.425Z,100.00
2023-03-13T07:52:28.923Z,100.00
2023-03-13T07:54:57.280Z,100.00
2023-03-13T07:57:25.571Z,100.00
2023-03-13T07:59:53.891Z,100.00
2023-03-13T08:02:22.329Z,100.00
2023-03-13T08:04:55.590Z,100.00
2023-03-13T08:07:25.218Z,100.00
2023-03-13T08:09:53.443Z,100.00
2023-03-13T08:12:21.713Z,100.00
2023-03-13T08:14:49.997Z,100.00
2023-03-13T08:17:18.397Z,100.00
2023-03-13T08:19:46.673Z,100.00
2023-03-13T08:22:16.279Z,100.00
2023-03-13T08:24:44.637Z,100.00
2023-03-13T08:27:12.935Z,100.00
2023-03-13T08:29:41.250Z,100.00
2023-03-13T08:32:09.910Z,100.00
2023-03-13T08:34:39.789Z,100.00
2023-03-13T08:37:08.037Z,100.00
2023-03-13T08:39:37.948Z,100.00
2023-03-13T08:42:06.422Z,98.65
2023-03-13T08:44:34.708Z,97.03
2023-03-13T08:47:03.320Z,94.78
2023-03-13T08:49:31.631Z,93.19
2023-03-13T08:52:00.694Z,91.80
2023-03-13T08:54:29.018Z,91.53
2023-03-13T08:56:59.866Z,90.95
2023-03-13T08:59:29.704Z,90.89
2023-03-13T09:01:58.231Z,90.66
2023-03-13T09:04:26.572Z,90.42
2023-03-13T09:06:55.305Z,91.45
2023-03-13T09:09:24.649Z,90.89
2023-03-13T09:11:54.144Z,90.99
2023-03-13T09:14:23.834Z,91.18
2023-03-13T09:16:52.182Z,90.60
2023-03-13T09:19:20.460Z,90.40
2023-03-13T09:21:49.356Z,90.03
2023-03-13T09:24:17.825Z,90.72
2023-03-13T09:27:00.156Z,91.06
2023-03-13T09:29:30.915Z,90.94
2023-03-13T09:31:59.857Z,88.49
2023-03-13T09:34:28.233Z,88.09
2023-03-13T09:36:56.508Z,88.11
2023-03-13T09:39:24.813Z,87.82
2023-03-13T09:42:01.506Z,88.06
2023-03-13T09:44:39.113Z,88.06
2023-03-13T09:47:12.879Z,88.65
2023-03-13T09:49:43.901Z,88.88
2023-03-13T09:52:18.547Z,88.33
2023-03-13T09:54:51.155Z,88.61
2023-03-13T09:57:26.511Z,87.84
2023-03-13T10:00:00.477Z,87.65
2023-03-13T10:02:34.086Z,87.16
2023-03-13T10:05:15.346Z,87.22
2023-03-13T10:07:43.855Z,86.68
2023-03-13T10:10:18.013Z,87.33
2023-03-13T10:12:49.227Z,86.18
2023-03-13T10:15:32.098Z,85.03
2023-03-13T10:18:03.262Z,84.22
2023-03-13T10:20:36.592Z,81.42
2023-03-13T10:23:09.327Z,80.63
2023-03-13T10:25:39.453Z,80.26
2023-03-13T10:28:12.410Z,81.54
2023-03-13T10:30:48.559Z,81.30
2023-03-13T10:33:28.622Z,81.59
2023-03-13T10:36:08.453Z,81.18
2023-03-13T10:38:49.690Z,81.72
2023-03-13T10:41:31.053Z,81.40
2023-03-13T10:44:02.948Z,81.67
2023-03-13T10:46:35.826Z,81.09
2023-03-13T10:49:06.343Z,79.42
2023-03-13T10:51:39.526Z,78.63
2023-03-13T10:54:23.640Z,77.98
2023-03-13T10:56:54.254Z,75.08
2023-03-13T10:59:25.312Z,75.53
2023-03-13T11:02:01.432Z,75.41
2023-03-13T11:04:34.804Z,72.81
2023-03-13T11:07:06.274Z,73.43
2023-03-13T11:09:34.629Z,73.29
2023-03-13T11:12:10.831Z,72.68
2023-03-13T11:14:39.792Z,72.44
2023-03-13T11:17:26.981Z,71.72
2023-03-13T11:20:06.999Z,70.20
2023-03-13T11:22:47.769Z,69.96
2023-03-13T11:25:23.173Z,67.16
2023-03-13T11:28:11.013Z,67.74
2023-03-13T11:30:54.752Z,64.88
2023-03-13T11:33:37.486Z,63.84
2023-03-13T11:36:16.463Z,64.84
2023-03-13T11:38:50.210Z,64.80
2023-03-13T11:41:40.179Z,64.05
2023-03-13T11:44:29.352Z,63.24
2023-03-13T11:47:36.901Z,63.65
2023-03-13T11:50:44.879Z,63.06
2023-03-13T11:53:41.936Z,64.07
2023-03-13T11:56:17.090Z,65.22
2023-03-13T11:59:06.882Z,66.07
2023-03-13T12:01:41.025Z,66.92
2023-03-13T12:04:19.484Z,67.63
2023-03-13T12:06:54.029Z,68.21
2023-03-13T12:09:29.043Z,68.04
2023-03-13T12:12:04.444Z,67.69
2023-03-13T12:14:37.515Z,68.11
2023-03-13T12:17:11.253Z,68.13
2023-03-13T12:19:49.202Z,67.93
2023-03-13T12:22:24.417Z,67.36
2023-03-13T12:25:01.193Z,68.05
2023-03-13T12:27:36.355Z,69.08
2023-03-13T12:30:16.549Z,67.21
2023-03-13T12:32:52.360Z,67.12
2023-03-13T12:35:28.810Z,66.63
2023-03-13T12:38:08.075Z,67.13
2023-03-13T12:40:42.947Z,66.03
2023-03-13T12:43:16.266Z,64.59
2023-03-13T12:46:06.647Z,64.42
2023-03-13T12:48:55.021Z,64.69
2023-03-13T12:51:43.860Z,64.20
2023-03-13T12:54:34.401Z,63.97
2023-03-13T12:57:15.646Z,63.52
2023-03-13T12:59:47.771Z,63.25
2023-03-13T13:02:20.758Z,62.68
2023-03-13T13:04:51.851Z,63.55
2023-03-13T13:07:26.801Z,64.28
2023-03-13T13:10:19.470Z,63.62
2023-03-13T13:13:18.923Z,63.88
2023-03-13T13:15:49.110Z,64.60
2023-03-13T13:18:28.556Z,65.44
2023-03-13T13:21:26.381Z,65.02
2023-03-13T13:23:56.594Z,64.64
2023-03-13T13:26:53.036Z,64.46
2023-03-13T13:29:58.050Z,65.05
2023-03-13T13:32:43.052Z,64.26
2023-03-13T13:35:40.803Z,64.10
2023-03-13T13:38:36.817Z,63.63
2023-03-13T13:41:26.703Z,62.74
2023-03-13T13:44:22.995Z,62.27
2023-03-13T13:46:51.664Z,62.43
2023-03-13T13:49:21.233Z,61.07
2023-03-13T13:52:33.748Z,61.46
2023-03-13T13:55:03.644Z,61.55
2023-03-13T13:57:35.855Z,62.38
2023-03-13T14:00:22.307Z,62.58
2023-03-13T14:02:53.917Z,62.31
2023-03-13T14:05:26.801Z,61.55
2023-03-13T14:08:02.027Z,62.20
2023-03-13T14:10:40.817Z,61.27
2023-03-13T14:13:19.095Z,62.46
2023-03-13T14:15:52.815Z,61.69
2023-03-13T14:18:25.447Z,62.16
2023-03-13T14:20:59.412Z,61.63
2023-03-13T14:23:42.106Z,61.40
2023-03-13T14:26:17.882Z,62.21
2023-03-13T14:28:49.294Z,61.19
2023-03-13T14:31:31.525Z,59.70
2023-03-13T14:34:03.428Z,60.83
2023-03-13T14:36:32.273Z,60.33
2023-03-13T14:39:01.400Z,60.67
2023-03-13T14:41:37.492Z,60.50
2023-03-13T14:44:11.604Z,60.44
2023-03-13T14:46:43.632Z,60.84
2023-03-13T14:49:20.641Z,60.00
2023-03-13T14:52:00.252Z,60.38
2023-03-13T14:54:32.594Z,60.99
2023-03-13T14:57:07.714Z,60.74
2023-03-13T14:59:36.033Z,60.64
2023-03-13T15:02:19.982Z,61.01
2023-03-13T15:04:59.628Z,61.46
2023-03-13T15:07:37.327Z,61.97
2023-03-13T15:10:21.542Z,61.32
2023-03-13T15:12:50.523Z,60.95
2023-03-13T15:15:19.497Z,60.82
2023-03-13T15:17:49.226Z,60.13
2023-03-13T15:20:18.986Z,60.09
2023-03-13T15:22:47.737Z,61.20
2023-03-13T15:25:20.690Z,60.82
2023-03-13T15:27:49.809Z,60.86
2023-03-13T15:30:19.401Z,60.12
2023-03-13T15:32:49.181Z,60.74
2023-03-13T15:35:28.346Z,60.38
2023-03-13T15:37:58.614Z,60.61
2023-03-13T15:40:28.358Z,61.08
2023-03-13T15:42:57.190Z,60.74
2023-03-13T15:45:25.507Z,60.49
2023-03-13T15:47:55.460Z,61.06
2023-03-13T15:50:29.631Z,61.02
2023-03-13T15:52:58.695Z,60.11
2023-03-13T15:55:27.770Z,60.00
2023-03-13T15:57:56.094Z,59.36
2023-03-13T16:00:26.946Z,59.28
2023-03-13T16:02:56.688Z,59.48
2023-03-13T16:05:24.980Z,59.88
2023-03-13T16:07:53.407Z,60.33
2023-03-13T16:10:25.785Z,61.33
2023-03-13T16:12:54.681Z,61.71
2023-03-13T16:15:23.571Z,62.34
2023-03-13T16:17:52.084Z,62.70
2023-03-13T16:20:26.398Z,62.95
2023-03-13T16:22:54.813Z,63.19
2023-03-13T16:25:24.230Z,63.70
2023-03-13T16:27:53.542Z,64.21
2023-03-13T16:30:27.268Z,64.70
2023-03-13T16:32:55.728Z,64.19
2023-03-13T16:35:28.354Z,64.59
2023-03-13T16:37:58.791Z,63.87
2023-03-13T16:40:30.309Z,63.95
2023-03-13T16:42:58.834Z,64.77
2023-03-13T16:45:27.521Z,64.86
2023-03-13T16:47:55.855Z,64.59
2023-03-13T16:50:29.748Z,65.03
2023-03-13T16:52:58.371Z,65.25
2023-03-13T16:55:28.671Z,65.51
2023-03-13T16:57:57.733Z,65.68
2023-03-13T17:00:29.877Z,65.99
2023-03-13T17:02:58.678Z,66.24
2023-03-13T17:05:30.818Z,66.53
2023-03-13T17:07:59.165Z,66.91
2023-03-13T17:10:30.469Z,67.12
2023-03-13T17:12:59.187Z,67.48
2023-03-13T17:15:28.691Z,67.94
2023-03-13T17:17:57.432Z,68.35
2023-03-13T17:20:31.152Z,68.29
2023-03-13T17:23:01.119Z,68.76
2023-03-13T17:25:29.516Z,68.74
2023-03-13T17:27:57.781Z,68.74
2023-03-13T17:30:28.906Z,69.14
2023-03-13T17:32:59.001Z,68.96
2023-03-13T17:35:28.795Z,69.29
2023-03-13T17:37:57.083Z,69.21
2023-03-13T17:40:30.037Z,69.26
2023-03-13T17:42:58.624Z,69.57
2023-03-13T17:45:27.036Z,69.75
2023-03-13T17:47:55.602Z,70.14
2023-03-13T17:50:28.294Z,70.03
2023-03-13T17:52:57.163Z,70.31
2023-03-13T17:55:25.511Z,70.45
2023-03-13T17:57:53.926Z,70.61
2023-03-13T18:00:25.835Z,71.04
2023-03-13T18:02:54.279Z,71.22
2023-03-13T18:05:22.807Z,71.29
2023-03-13T18:07:53.232Z,71.51
2023-03-13T18:10:24.492Z,71.79
2023-03-13T18:12:53.269Z,71.96
2023-03-13T18:15:22.937Z,72.06
2023-03-13T18:17:51.758Z,72.39
2023-03-13T18:20:22.997Z,72.39
2023-03-13T18:22:52.676Z,72.45
2023-03-13T18:25:20.956Z,72.58
2023-03-13T18:27:49.212Z,72.63
2023-03-13T18:30:20.521Z,72.45
2023-03-13T18:32:49.426Z,72.36
2023-03-13T18:35:19.297Z,72.84
2023-03-13T18:37:49.002Z,72.68
2023-03-13T18:40:23.395Z,72.79
2023-03-13T18:42:51.920Z,73.08
2023-03-13T18:45:23.750Z,73.13
2023-03-13T18:47:52.318Z,72.97
2023-03-13T18:50:26.382Z,73.06
2023-03-13T18:52:55.886Z,72.74
2023-03-13T18:55:27.253Z,73.09
2023-03-13T18:57:56.191Z,73.01
2023-03-13T19:00:27.364Z,73.01
2023-03-13T19:02:56.090Z,72.71
2023-03-13T19:05:24.722Z,73.10
2023-03-13T19:07:54.060Z,72.99
2023-03-13T19:10:26.837Z,73.45
2023-03-13T19:12:57.117Z,73.33
2023-03-13T19:15:29.156Z,73.25
2023-03-13T19:18:01.810Z,73.05
2023-03-13T19:20:31.521Z,73.01
2023-03-13T19:23:00.852Z,72.32
2023-03-13T19:25:30.726Z,72.85
2023-03-13T19:27:59.146Z,72.49
2023-03-13T19:30:28.499Z,72.34
2023-03-13T19:32:56.931Z,72.53
2023-03-13T19:35:25.441Z,72.19
2023-03-13T19:37:53.788Z,72.40
2023-03-13T19:40:26.064Z,72.41
2023-03-13T19:42:55.864Z,72.52
2023-03-13T19:45:24.200Z,72.13
2023-03-13T19:47:52.447Z,72.03
2023-03-13T19:50:23.711Z,71.76
2023-03-13T19:52:52.078Z,71.74
2023-03-13T19:55:20.633Z,72.01
2023-03-13T19:57:48.926Z,71.85
2023-03-13T20:00:23.344Z,71.77
2023-03-13T20:02:54.968Z,71.93
2023-03-13T20:05:23.765Z,71.72
2023-03-13T20:07:53.958Z,72.12
2023-03-13T20:10:22.958Z,71.81
2023-03-13T20:12:53.550Z,72.02
2023-03-13T20:15:23.306Z,71.88
2023-03-13T20:17:51.697Z,71.44
2023-03-13T20:20:20.675Z,71.27
2023-03-13T20:22:49.015Z,71.09
2023-03-13T20:25:17.543Z,71.11
2023-03-13T20:27:45.915Z,71.10
2023-03-13T20:30:14.554Z,70.60
2023-03-13T20:32:58.576Z,70.82
2023-03-13T20:35:29.399Z,70.88
2023-03-13T20:37:59.782Z,70.59
2023-03-13T20:40:28.384Z,71.15
2023-03-13T20:42:58.322Z,71.01
2023-03-13T20:45:28.022Z,71.04
2023-03-13T20:47:58.708Z,71.38
2023-03-13T20:50:26.902Z,71.11
2023-03-13T20:52:56.195Z,71.14
2023-03-13T20:55:24.475Z,71.18
2023-03-13T20:57:52.764Z,71.22
2023-03-13T21:00:23.365Z,71.18
2023-03-13T21:02:53.781Z,71.05
2023-03-13T21:05:23.560Z,71.58
2023-03-13T21:07:51.878Z,71.57
2023-03-13T21:10:20.414Z,71.84
2023-03-13T21:12:48.725Z,71.88
2023-03-13T21:15:17.218Z,71.99
2023-03-13T21:17:45.571Z,72.35
2023-03-13T21:20:15.436Z,72.46
2023-03-13T21:22:45.129Z,72.54
2023-03-13T21:25:13.979Z,72.55
2023-03-13T21:27:43.748Z,72.85
2023-03-13T21:30:15.510Z,73.00
2023-03-13T21:32:43.986Z,73.30
2023-03-13T21:35:13.357Z,73.61
2023-03-13T21:37:42.797Z,74.30
2023-03-13T21:40:14.130Z,74.97
2023-03-13T21:42:42.452Z,75.94
2023-03-13T21:45:12.370Z,76.99
2023-03-13T21:47:40.756Z,77.47
2023-03-13T21:50:11.325Z,78.21
2023-03-13T21:52:42.130Z,78.03
2023-03-13T21:55:14.029Z,78.00
2023-03-13T21:57:42.453Z,78.10
2023-03-13T22:00:14.340Z,78.16
2023-03-13T22:02:43.310Z,78.06
2023-03-13T22:05:13.024Z,77.85
2023-03-13T22:07:41.430Z,78.11
2023-03-13T22:10:11.375Z,78.22
2023-03-13T22:12:41.080Z,78.37
2023-03-13T22:15:11.658Z,77.99
2023-03-13T22:17:40.009Z,77.87
2023-03-13T22:20:10.576Z,77.92
2023-03-13T22:22:38.874Z,78.08
2023-03-13T22:25:08.172Z,77.84
2023-03-13T22:27:36.739Z,78.11
2023-03-13T22:30:08.538Z,77.96
2023-03-13T22:32:36.894Z,78.51
2023-03-13T22:35:06.670Z,78.84
2023-03-13T22:37:35.099Z,78.82
2023-03-13T22:40:03.512Z,78.91
2023-03-13T22:42:31.860Z,79.05
2023-03-13T22:45:00.224Z,78.90
2023-03-13T22:47:29.951Z,78.80
2023-03-13T22:49:58.271Z,78.60
2023-03-13T22:52:30.647Z,79.02
2023-03-13T22:54:59.974Z,79.17
2023-03-13T22:57:29.390Z,79.46
2023-03-13T22:59:59.088Z,79.72
2023-03-13T23:02:29.410Z,79.79
2023-03-13T23:05:00.532Z,80.06
2023-03-13T23:07:31.054Z,79.51
2023-03-13T23:09:59.989Z,79.55
2023-03-13T23:12:30.766Z,79.60
2023-03-13T23:15:00.495Z,79.50
2023-03-13T23:17:32.210Z,79.31
2023-03-13T23:20:01.458Z,79.89
2023-03-13T23:22:32.866Z,79.84
2023-03-13T23:25:01.373Z,79.60
2023-03-13T23:27:29.728Z,79.77
2023-03-13T23:29:58.033Z,79.57
2023-03-13T23:32:26.481Z,79.69
2023-03-13T23:34:58.493Z,80.01
2023-03-13T23:37:26.741Z,80.45
2023-03-13T23:39:55.154Z,80.75
2023-03-13T23:42:23.432Z,81.04
2023-03-13T23:44:51.681Z,81.33
2023-03-13T23:47:20.171Z,81.49
2023-03-13T23:49:48.478Z,81.47
2023-03-13T23:52:18.127Z,81.75
2023-03-13T23:54:46.458Z,82.13
2023-03-13T23:57:14.736Z,82.35
2023-03-13T23:59:43.215Z,81.98
